Terminal Aerodrome Forecast
Issued by NWS

Home | Current Version | Previous Version | Text Only | Print | Product List | Glossary On
Versions: 1 2 3 4 5 6 7 8 9 10 11 12 13 14 15 16 17 18 19 20 21 22 23 24
617
FTUS41 KPBZ 141727
TAFFKL
TAF
KFKL 141727Z 1418/1518 17004KT P6SM BKN030
     FM142100 16005KT P6SM SCT030
     FM150300 14007KT P6SM BKN090
     FM150900 15010KT 6SM -SN OVC020
     FM151600 16011KT P6SM OVC015
      AMD LTD TO CLD VIS AND WIND=

USA.gov is the U.S. government's official web portal to all federal, state and local government web resources and services.